sensor_id;sensor_type;location;lat;lon;timestamp;P1;durP1;ratioP1;P2;durP2;ratioP2
5499;SDS011;2772;42.700;23.304;2023-07-31T01:24:01;14.37;;;12.87;;
5499;SDS011;2772;42.700;23.304;2023-07-31T01:26:41;18.67;;;12.93;;
5499;SDS011;2772;42.700;23.304;2023-07-31T01:29:14;17.33;;;13.17;;
5499;SDS011;2772;42.700;23.304;2023-07-31T01:31:46;18.37;;;12.07;;
5499;SDS011;2772;42.700;23.304;2023-07-31T01:34:16;19.17;;;14.33;;
5499;SDS011;2772;42.700;23.304;2023-07-31T01:36:44;15.30;;;13.70;;
5499;SDS011;2772;42.700;23.304;2023-07-31T01:39:11;23.23;;;15.70;;
5499;SDS011;2772;42.700;23.304;2023-07-31T01:41:38;19.10;;;16.10;;
5499;SDS011;2772;42.700;23.304;2023-07-31T01:44:06;22.03;;;16.73;;
5499;SDS011;2772;42.700;23.304;2023-07-31T01:46:33;21.90;;;16.80;;
5499;SDS011;2772;42.700;23.304;2023-07-31T01:48:59;23.13;;;18.37;;
5499;SDS011;2772;42.700;23.304;2023-07-31T01:51:26;22.97;;;18.37;;
5499;SDS011;2772;42.700;23.304;2023-07-31T01:53:53;25.60;;;19.40;;
5499;SDS011;2772;42.700;23.304;2023-07-31T01:56:20;26.87;;;18.83;;
5499;SDS011;2772;42.700;23.304;2023-07-31T01:58:46;25.93;;;18.73;;
5499;SDS011;2772;42.700;23.304;2023-07-31T02:01:14;24.43;;;18.70;;
5499;SDS011;2772;42.700;23.304;2023-07-31T02:03:41;25.50;;;19.57;;
5499;SDS011;2772;42.700;23.304;2023-07-31T02:06:08;26.47;;;19.90;;
5499;SDS011;2772;42.700;23.304;2023-07-31T02:08:35;26.77;;;20.40;;
5499;SDS011;2772;42.700;23.304;2023-07-31T02:11:01;27.63;;;19.70;;
5499;SDS011;2772;42.700;23.304;2023-07-31T02:13:28;24.93;;;20.03;;
5499;SDS011;2772;42.700;23.304;2023-07-31T02:15:55;30.50;;;20.40;;
5499;SDS011;2772;42.700;23.304;2023-07-31T02:18:24;25.13;;;20.20;;
5499;SDS011;2772;42.700;23.304;2023-07-31T02:20:50;26.73;;;21.10;;
5499;SDS011;2772;42.700;23.304;2023-07-31T02:23:18;29.60;;;20.80;;
5499;SDS011;2772;42.700;23.304;2023-07-31T02:25:45;26.60;;;20.50;;
5499;SDS011;2772;42.700;23.304;2023-07-31T02:28:12;25.83;;;20.30;;
5499;SDS011;2772;42.700;23.304;2023-07-31T02:30:39;28.80;;;20.33;;
5499;SDS011;2772;42.700;23.304;2023-07-31T02:52:59;26.30;;;21.30;;
5499;SDS011;2772;42.700;23.304;2023-07-31T02:55:26;30.40;;;22.20;;
5499;SDS011;2772;42.700;23.304;2023-07-31T02:57:53;31.77;;;22.00;;
5499;SDS011;2772;42.700;23.304;2023-07-31T03:00:20;28.03;;;21.53;;
5499;SDS011;2772;42.700;23.304;2023-07-31T03:02:47;32.17;;;21.27;;
5499;SDS011;2772;42.700;23.304;2023-07-31T03:05:14;29.90;;;21.83;;
5499;SDS011;2772;42.700;23.304;2023-07-31T03:07:41;30.13;;;21.60;;
5499;SDS011;2772;42.700;23.304;2023-07-31T03:10:09;35.03;;;23.00;;
5499;SDS011;2772;42.700;23.304;2023-07-31T03:12:36;28.30;;;22.13;;
5499;SDS011;2772;42.700;23.304;2023-07-31T03:15:03;27.77;;;21.30;;
5499;SDS011;2772;42.700;23.304;2023-07-31T03:17:30;34.87;;;22.83;;
5499;SDS011;2772;42.700;23.304;2023-07-31T03:19:57;29.13;;;20.97;;
5499;SDS011;2772;42.700;23.304;2023-07-31T03:22:23;29.00;;;21.90;;
5499;SDS011;2772;42.700;23.304;2023-07-31T03:24:50;30.50;;;22.13;;
5499;SDS011;2772;42.700;23.304;2023-07-31T03:27:18;30.13;;;21.83;;
5499;SDS011;2772;42.700;23.304;2023-07-31T03:29:47;35.07;;;22.37;;
5499;SDS011;2772;42.700;23.304;2023-07-31T03:32:16;26.57;;;20.17;;
5499;SDS011;2772;42.700;23.304;2023-07-31T08:29:26;5.03;;;4.53;;
5499;SDS011;2772;42.700;23.304;2023-07-31T08:31:53;8.20;;;5.77;;
5499;SDS011;2772;42.700;23.304;2023-07-31T08:34:20;7.70;;;4.30;;
5499;SDS011;2772;42.700;23.304;2023-07-31T08:36:46;6.73;;;4.67;;
5499;SDS011;2772;42.700;23.304;2023-07-31T08:39:13;5.90;;;4.93;;
5499;SDS011;2772;42.700;23.304;2023-07-31T08:41:41;6.13;;;4.60;;
5499;SDS011;2772;42.700;23.304;2023-07-31T08:44:07;8.17;;;4.93;;
5499;SDS011;2772;42.700;23.304;2023-07-31T08:46:36;7.70;;;5.60;;
5499;SDS011;2772;42.700;23.304;2023-07-31T08:49:04;7.90;;;6.33;;
5499;SDS011;2772;42.700;23.304;2023-07-31T08:51:33;16.87;;;12.33;;
5499;SDS011;2772;42.700;23.304;2023-07-31T08:54:01;12.13;;;7.17;;
5499;SDS011;2772;42.700;23.304;2023-07-31T08:56:29;6.70;;;4.63;;
5499;SDS011;2772;42.700;23.304;2023-07-31T08:58:57;5.60;;;4.37;;
5499;SDS011;2772;42.700;23.304;2023-07-31T09:01:26;4.40;;;4.03;;
5499;SDS011;2772;42.700;23.304;2023-07-31T09:03:57;4.50;;;4.20;;
5499;SDS011;2772;42.700;23.304;2023-07-31T09:06:25;8.00;;;7.17;;
5499;SDS011;2772;42.700;23.304;2023-07-31T09:08:56;6.50;;;4.50;;
5499;SDS011;2772;42.700;23.304;2023-07-31T09:11:23;8.27;;;5.47;;
5499;SDS011;2772;42.700;23.304;2023-07-31T09:13:52;5.37;;;4.73;;
5499;SDS011;2772;42.700;23.304;2023-07-31T10:18:54;6.23;;;3.80;;
5499;SDS011;2772;42.700;23.304;2023-07-31T10:21:21;3.53;;;3.30;;
5499;SDS011;2772;42.700;23.304;2023-07-31T10:23:48;4.50;;;4.07;;
5499;SDS011;2772;42.700;23.304;2023-07-31T10:26:16;5.00;;;3.20;;
5499;SDS011;2772;42.700;23.304;2023-07-31T10:28:45;5.40;;;4.20;;
5499;SDS011;2772;42.700;23.304;2023-07-31T10:31:13;7.73;;;3.73;;
5499;SDS011;2772;42.700;23.304;2023-07-31T10:33:44;3.83;;;3.30;;
5499;SDS011;2772;42.700;23.304;2023-07-31T10:36:15;5.23;;;3.60;;
5499;SDS011;2772;42.700;23.304;2023-07-31T10:38:44;3.20;;;3.00;;
5499;SDS011;2772;42.700;23.304;2023-07-31T10:41:11;4.90;;;3.53;;
5499;SDS011;2772;42.700;23.304;2023-07-31T10:43:38;3.37;;;3.17;;
5499;SDS011;2772;42.700;23.304;2023-07-31T10:46:07;4.43;;;3.60;;
5499;SDS011;2772;42.700;23.304;2023-07-31T10:48:35;3.87;;;3.10;;
5499;SDS011;2772;42.700;23.304;2023-07-31T10:51:06;3.23;;;2.70;;
5499;SDS011;2772;42.700;23.304;2023-07-31T10:53:39;5.70;;;3.90;;
5499;SDS011;2772;42.700;23.304;2023-07-31T10:56:07;6.13;;;3.07;;
5499;SDS011;2772;42.700;23.304;2023-07-31T10:58:35;4.60;;;3.23;;
5499;SDS011;2772;42.700;23.304;2023-07-31T11:01:03;3.57;;;3.27;;
5499;SDS011;2772;42.700;23.304;2023-07-31T11:06:17;3.27;;;2.97;;
5499;SDS011;2772;42.700;23.304;2023-07-31T11:08:46;5.20;;;3.20;;
5499;SDS011;2772;42.700;23.304;2023-07-31T11:11:14;2.80;;;2.60;;
5499;SDS011;2772;42.700;23.304;2023-07-31T11:13:43;3.07;;;2.83;;
5499;SDS011;2772;42.700;23.304;2023-07-31T11:16:11;14.10;;;10.90;;
5499;SDS011;2772;42.700;23.304;2023-07-31T11:18:39;4.87;;;4.47;;
5499;SDS011;2772;42.700;23.304;2023-07-31T11:21:07;4.37;;;3.97;;
5499;SDS011;2772;42.700;23.304;2023-07-31T11:23:35;5.10;;;4.67;;
5499;SDS011;2772;42.700;23.304;2023-07-31T11:26:04;8.70;;;4.17;;
5499;SDS011;2772;42.700;23.304;2023-07-31T11:28:32;5.20;;;2.60;;
5499;SDS011;2772;42.700;23.304;2023-07-31T11:31:00;3.60;;;3.30;;
5499;SDS011;2772;42.700;23.304;2023-07-31T11:33:28;11.13;;;4.10;;
5499;SDS011;2772;42.700;23.304;2023-07-31T11:35:55;3.10;;;2.90;;
5499;SDS011;2772;42.700;23.304;2023-07-31T11:38:22;3.10;;;2.90;;
5499;SDS011;2772;42.700;23.304;2023-07-31T11:40:50;7.03;;;3.67;;
5499;SDS011;2772;42.700;23.304;2023-07-31T11:43:18;3.67;;;3.37;;
5499;SDS011;2772;42.700;23.304;2023-07-31T11:45:47;5.73;;;3.60;;
5499;SDS011;2772;42.700;23.304;2023-07-31T11:48:21;4.17;;;3.87;;
5499;SDS011;2772;42.700;23.304;2023-07-31T11:50:49;4.37;;;3.90;;
5499;SDS011;2772;42.700;23.304;2023-07-31T11:53:17;4.70;;;3.80;;
5499;SDS011;2772;42.700;23.304;2023-07-31T11:55:48;3.90;;;3.50;;
5499;SDS011;2772;42.700;23.304;2023-07-31T11:58:15;4.27;;;3.97;;
5499;SDS011;2772;42.700;23.304;2023-07-31T12:00:44;4.03;;;3.60;;
5499;SDS011;2772;42.700;23.304;2023-07-31T12:03:11;5.10;;;4.60;;
5499;SDS011;2772;42.700;23.304;2023-07-31T12:05:38;4.90;;;4.40;;
5499;SDS011;2772;42.700;23.304;2023-07-31T12:08:08;5.53;;;5.03;;
5499;SDS011;2772;42.700;23.304;2023-07-31T12:10:35;7.80;;;7.10;;
5499;SDS011;2772;42.700;23.304;2023-07-31T12:13:06;8.73;;;7.10;;
5499;SDS011;2772;42.700;23.304;2023-07-31T12:15:36;6.87;;;6.03;;
5499;SDS011;2772;42.700;23.304;2023-07-31T12:18:09;8.43;;;5.33;;
5499;SDS011;2772;42.700;23.304;2023-07-31T12:20:40;9.70;;;5.60;;
5499;SDS011;2772;42.700;23.304;2023-07-31T12:23:12;7.33;;;6.70;;
5499;SDS011;2772;42.700;23.304;2023-07-31T12:25:43;6.53;;;6.00;;
5499;SDS011;2772;42.700;23.304;2023-07-31T12:28:10;7.10;;;6.40;;
5499;SDS011;2772;42.700;23.304;2023-07-31T12:30:38;8.03;;;6.07;;
5499;SDS011;2772;42.700;23.304;2023-07-31T12:33:12;9.10;;;6.47;;
5499;SDS011;2772;42.700;23.304;2023-07-31T12:35:41;4.93;;;4.63;;
5499;SDS011;2772;42.700;23.304;2023-07-31T12:38:09;5.60;;;5.20;;
5499;SDS011;2772;42.700;23.304;2023-07-31T12:40:37;6.03;;;4.90;;
5499;SDS011;2772;42.700;23.304;2023-07-31T12:43:05;6.13;;;5.53;;
5499;SDS011;2772;42.700;23.304;2023-07-31T12:45:32;6.07;;;5.50;;
5499;SDS011;2772;42.700;23.304;2023-07-31T12:47:59;7.60;;;6.90;;
5499;SDS011;2772;42.700;23.304;2023-07-31T12:50:27;7.30;;;6.60;;
5499;SDS011;2772;42.700;23.304;2023-07-31T12:52:54;7.70;;;7.10;;
5499;SDS011;2772;42.700;23.304;2023-07-31T12:55:21;7.20;;;6.23;;
5499;SDS011;2772;42.700;23.304;2023-07-31T12:57:48;10.03;;;6.27;;
5499;SDS011;2772;42.700;23.304;2023-07-31T13:00:15;8.23;;;5.90;;
5499;SDS011;2772;42.700;23.304;2023-07-31T13:02:42;7.40;;;6.80;;
5499;SDS011;2772;42.700;23.304;2023-07-31T13:05:08;10.60;;;6.63;;
5499;SDS011;2772;42.700;23.304;2023-07-31T13:07:37;7.10;;;6.40;;
5499;SDS011;2772;42.700;23.304;2023-07-31T13:10:04;7.00;;;6.30;;
5499;SDS011;2772;42.700;23.304;2023-07-31T13:12:31;6.83;;;6.33;;
5499;SDS011;2772;42.700;23.304;2023-07-31T13:14:58;6.33;;;5.83;;
5499;SDS011;2772;42.700;23.304;2023-07-31T13:17:25;7.07;;;6.43;;
5499;SDS011;2772;42.700;23.304;2023-07-31T13:19:52;9.90;;;5.83;;
5499;SDS011;2772;42.700;23.304;2023-07-31T13:22:18;6.07;;;5.60;;
5499;SDS011;2772;42.700;23.304;2023-07-31T13:24:47;7.50;;;6.10;;
5499;SDS011;2772;42.700;23.304;2023-07-31T13:27:13;5.53;;;5.03;;
5499;SDS011;2772;42.700;23.304;2023-07-31T13:29:43;5.83;;;5.33;;
5499;SDS011;2772;42.700;23.304;2023-07-31T13:32:10;5.37;;;4.87;;
5499;SDS011;2772;42.700;23.304;2023-07-31T13:34:36;5.40;;;4.90;;
5499;SDS011;2772;42.700;23.304;2023-07-31T13:37:03;5.73;;;5.20;;
5499;SDS011;2772;42.700;23.304;2023-07-31T13:39:31;5.87;;;5.43;;
5499;SDS011;2772;42.700;23.304;2023-07-31T13:41:59;6.60;;;5.40;;
5499;SDS011;2772;42.700;23.304;2023-07-31T13:44:25;5.97;;;5.43;;
5499;SDS011;2772;42.700;23.304;2023-07-31T13:46:52;6.17;;;5.30;;
5499;SDS011;2772;42.700;23.304;2023-07-31T13:49:19;10.23;;;5.60;;
5499;SDS011;2772;42.700;23.304;2023-07-31T13:51:46;5.40;;;4.90;;
5499;SDS011;2772;42.700;23.304;2023-07-31T13:54:12;5.00;;;4.60;;
5499;SDS011;2772;42.700;23.304;2023-07-31T13:56:40;4.57;;;4.17;;
5499;SDS011;2772;42.700;23.304;2023-07-31T13:59:09;6.13;;;5.63;;
5499;SDS011;2772;42.700;23.304;2023-07-31T14:01:36;4.90;;;4.50;;
5499;SDS011;2772;42.700;23.304;2023-07-31T14:04:03;5.80;;;5.30;;
5499;SDS011;2772;42.700;23.304;2023-07-31T14:06:30;5.40;;;4.90;;
5499;SDS011;2772;42.700;23.304;2023-07-31T14:08:56;5.80;;;5.40;;
5499;SDS011;2772;42.700;23.304;2023-07-31T14:11:23;5.00;;;4.60;;
5499;SDS011;2772;42.700;23.304;2023-07-31T14:13:50;5.20;;;4.83;;
5499;SDS011;2772;42.700;23.304;2023-07-31T14:16:19;8.77;;;5.90;;
5499;SDS011;2772;42.700;23.304;2023-07-31T14:18:45;6.17;;;5.57;;
5499;SDS011;2772;42.700;23.304;2023-07-31T14:21:12;6.83;;;5.60;;
5499;SDS011;2772;42.700;23.304;2023-07-31T14:23:39;5.67;;;5.17;;
5499;SDS011;2772;42.700;23.304;2023-07-31T14:26:06;9.10;;;5.70;;
5499;SDS011;2772;42.700;23.304;2023-07-31T14:28:35;6.00;;;5.40;;
5499;SDS011;2772;42.700;23.304;2023-07-31T14:31:01;9.90;;;5.80;;
5499;SDS011;2772;42.700;23.304;2023-07-31T14:33:30;6.17;;;5.23;;
5499;SDS011;2772;42.700;23.304;2023-07-31T14:35:57;5.97;;;5.47;;
5499;SDS011;2772;42.700;23.304;2023-07-31T14:38:23;8.73;;;5.30;;
5499;SDS011;2772;42.700;23.304;2023-07-31T14:40:50;8.93;;;4.90;;
5499;SDS011;2772;42.700;23.304;2023-07-31T14:43:17;5.60;;;5.17;;
5499;SDS011;2772;42.700;23.304;2023-07-31T14:45:44;8.53;;;4.77;;
5499;SDS011;2772;42.700;23.304;2023-07-31T14:48:11;9.43;;;5.40;;
5499;SDS011;2772;42.700;23.304;2023-07-31T14:50:40;7.73;;;5.17;;
5499;SDS011;2772;42.700;23.304;2023-07-31T14:53:07;9.40;;;4.83;;
5499;SDS011;2772;42.700;23.304;2023-07-31T14:55:34;10.50;;;4.67;;
5499;SDS011;2772;42.700;23.304;2023-07-31T14:58:01;5.07;;;4.67;;
5499;SDS011;2772;42.700;23.304;2023-07-31T15:00:28;5.13;;;4.43;;
5499;SDS011;2772;42.700;23.304;2023-07-31T15:02:54;5.90;;;4.80;;
5499;SDS011;2772;42.700;23.304;2023-07-31T15:05:21;5.88;;;4.60;;
5499;SDS011;2772;42.700;23.304;2023-07-31T15:07:49;12.23;;;4.30;;
5499;SDS011;2772;42.700;23.304;2023-07-31T15:10:16;4.90;;;4.40;;
5499;SDS011;2772;42.700;23.304;2023-07-31T15:12:43;4.20;;;3.90;;
5499;SDS011;2772;42.700;23.304;2023-07-31T15:15:10;6.27;;;4.17;;
5499;SDS011;2772;42.700;23.304;2023-07-31T15:17:37;3.53;;;3.33;;
5499;SDS011;2772;42.700;23.304;2023-07-31T15:20:04;4.60;;;4.27;;
5499;SDS011;2772;42.700;23.304;2023-07-31T15:22:32;3.93;;;3.63;;
5499;SDS011;2772;42.700;23.304;2023-07-31T15:25:00;3.70;;;3.50;;
5499;SDS011;2772;42.700;23.304;2023-07-31T15:27:27;3.87;;;3.57;;
5499;SDS011;2772;42.700;23.304;2023-07-31T15:29:53;5.33;;;3.70;;
5499;SDS011;2772;42.700;23.304;2023-07-31T15:32:21;3.40;;;3.20;;
5499;SDS011;2772;42.700;23.304;2023-07-31T15:34:48;3.60;;;3.30;;
5499;SDS011;2772;42.700;23.304;2023-07-31T15:37:15;4.97;;;3.37;;
5499;SDS011;2772;42.700;23.304;2023-07-31T15:39:42;3.20;;;3.00;;
5499;SDS011;2772;42.700;23.304;2023-07-31T15:42:11;3.47;;;3.20;;
5499;SDS011;2772;42.700;23.304;2023-07-31T15:44:38;3.23;;;3.03;;
5499;SDS011;2772;42.700;23.304;2023-07-31T15:47:05;7.17;;;3.33;;
5499;SDS011;2772;42.700;23.304;2023-07-31T15:49:32;3.53;;;3.33;;
5499;SDS011;2772;42.700;23.304;2023-07-31T15:51:59;3.13;;;2.87;;
5499;SDS011;2772;42.700;23.304;2023-07-31T15:54:26;3.87;;;3.57;;
5499;SDS011;2772;42.700;23.304;2023-07-31T15:56:53;10.73;;;3.70;;
5499;SDS011;2772;42.700;23.304;2023-07-31T15:59:21;3.13;;;2.83;;
5499;SDS011;2772;42.700;23.304;2023-07-31T16:01:48;2.67;;;2.47;;
5499;SDS011;2772;42.700;23.304;2023-07-31T16:04:14;3.07;;;2.87;;
5499;SDS011;2772;42.700;23.304;2023-07-31T16:06:41;3.33;;;3.13;;
5499;SDS011;2772;42.700;23.304;2023-07-31T16:09:08;4.43;;;3.87;;
5499;SDS011;2772;42.700;23.304;2023-07-31T16:11:34;5.80;;;2.80;;
5499;SDS011;2772;42.700;23.304;2023-07-31T16:14:01;3.00;;;2.70;;
5499;SDS011;2772;42.700;23.304;2023-07-31T16:16:29;3.13;;;2.83;;
5499;SDS011;2772;42.700;23.304;2023-07-31T16:18:56;4.17;;;2.53;;
5499;SDS011;2772;42.700;23.304;2023-07-31T16:21:23;4.00;;;3.00;;
5499;SDS011;2772;42.700;23.304;2023-07-31T16:23:50;6.03;;;2.53;;
5499;SDS011;2772;42.700;23.304;2023-07-31T16:26:16;10.60;;;2.70;;
5499;SDS011;2772;42.700;23.304;2023-07-31T16:28:43;5.47;;;2.47;;
5499;SDS011;2772;42.700;23.304;2023-07-31T16:31:10;6.07;;;2.63;;
5499;SDS011;2772;42.700;23.304;2023-07-31T16:33:38;2.60;;;2.40;;
5499;SDS011;2772;42.700;23.304;2023-07-31T16:36:05;8.13;;;2.90;;
5499;SDS011;2772;42.700;23.304;2023-07-31T16:38:31;3.47;;;2.77;;
5499;SDS011;2772;42.700;23.304;2023-07-31T16:40:58;2.80;;;2.53;;
5499;SDS011;2772;42.700;23.304;2023-07-31T16:43:25;3.33;;;2.97;;
5499;SDS011;2772;42.700;23.304;2023-07-31T16:45:54;4.70;;;3.07;;
5499;SDS011;2772;42.700;23.304;2023-07-31T16:48:20;2.90;;;2.70;;
5499;SDS011;2772;42.700;23.304;2023-07-31T16:50:49;2.80;;;2.70;;
5499;SDS011;2772;42.700;23.304;2023-07-31T16:53:15;2.60;;;2.40;;
5499;SDS011;2772;42.700;23.304;2023-07-31T16:55:42;2.70;;;2.50;;
5499;SDS011;2772;42.700;23.304;2023-07-31T16:58:08;2.60;;;2.40;;
5499;SDS011;2772;42.700;23.304;2023-07-31T17:00:35;20.87;;;4.37;;
5499;SDS011;2772;42.700;23.304;2023-07-31T17:03:03;2.80;;;2.60;;
5499;SDS011;2772;42.700;23.304;2023-07-31T17:05:30;2.80;;;2.60;;
5499;SDS011;2772;42.700;23.304;2023-07-31T17:07:58;3.80;;;2.50;;
5499;SDS011;2772;42.700;23.304;2023-07-31T17:10:25;2.70;;;2.60;;
5499;SDS011;2772;42.700;23.304;2023-07-31T17:12:52;3.10;;;3.00;;
5499;SDS011;2772;42.700;23.304;2023-07-31T17:15:18;2.50;;;2.30;;
5499;SDS011;2772;42.700;23.304;2023-07-31T17:17:45;2.60;;;2.50;;
5499;SDS011;2772;42.700;23.304;2023-07-31T17:20:13;3.77;;;3.10;;
5499;SDS011;2772;42.700;23.304;2023-07-31T17:22:39;2.90;;;2.60;;
5499;SDS011;2772;42.700;23.304;2023-07-31T17:25:10;3.37;;;3.17;;
5499;SDS011;2772;42.700;23.304;2023-07-31T17:27:37;3.60;;;2.80;;
5499;SDS011;2772;42.700;23.304;2023-07-31T17:30:04;2.87;;;2.77;;
5499;SDS011;2772;42.700;23.304;2023-07-31T17:32:32;2.93;;;2.73;;
5499;SDS011;2772;42.700;23.304;2023-07-31T17:34:58;9.80;;;2.73;;
5499;SDS011;2772;42.700;23.304;2023-07-31T17:37:25;2.93;;;2.73;;
5499;SDS011;2772;42.700;23.304;2023-07-31T17:39:52;4.13;;;2.80;;
5499;SDS011;2772;42.700;23.304;2023-07-31T17:42:20;4.03;;;3.30;;
5499;SDS011;2772;42.700;23.304;2023-07-31T17:44:47;2.90;;;2.70;;
5499;SDS011;2772;42.700;23.304;2023-07-31T17:47:13;6.30;;;3.20;;
5499;SDS011;2772;42.700;23.304;2023-07-31T17:49:40;3.10;;;2.90;;
5499;SDS011;2772;42.700;23.304;2023-07-31T17:52:07;4.63;;;3.10;;
5499;SDS011;2772;42.700;23.304;2023-07-31T17:54:34;4.73;;;3.40;;
5499;SDS011;2772;42.700;23.304;2023-07-31T17:57:01;4.67;;;2.93;;
5499;SDS011;2772;42.700;23.304;2023-07-31T17:59:29;7.47;;;3.93;;
5499;SDS011;2772;42.700;23.304;2023-07-31T18:01:55;3.73;;;3.50;;
5499;SDS011;2772;42.700;23.304;2023-07-31T18:04:22;3.83;;;3.53;;
5499;SDS011;2772;42.700;23.304;2023-07-31T18:06:49;3.73;;;3.00;;
5499;SDS011;2772;42.700;23.304;2023-07-31T18:09:15;4.00;;;3.27;;
5499;SDS011;2772;42.700;23.304;2023-07-31T18:11:42;3.57;;;3.27;;
5499;SDS011;2772;42.700;23.304;2023-07-31T18:14:09;3.60;;;3.40;;
5499;SDS011;2772;42.700;23.304;2023-07-31T18:16:37;4.23;;;3.77;;
5499;SDS011;2772;42.700;23.304;2023-07-31T18:19:03;8.13;;;6.70;;
5499;SDS011;2772;42.700;23.304;2023-07-31T18:21:30;5.57;;;4.17;;
5499;SDS011;2772;42.700;23.304;2023-07-31T18:23:58;3.90;;;3.60;;
5499;SDS011;2772;42.700;23.304;2023-07-31T18:26:25;5.90;;;4.87;;
5499;SDS011;2772;42.700;23.304;2023-07-31T18:28:52;3.80;;;3.20;;
5499;SDS011;2772;42.700;23.304;2023-07-31T18:31:19;5.60;;;4.97;;
5499;SDS011;2772;42.700;23.304;2023-07-31T18:33:47;7.73;;;4.60;;
5499;SDS011;2772;42.700;23.304;2023-07-31T18:36:14;18.83;;;8.60;;
5499;SDS011;2772;42.700;23.304;2023-07-31T18:38:40;3.40;;;3.20;;
5499;SDS011;2772;42.700;23.304;2023-07-31T18:41:07;6.33;;;4.67;;
5499;SDS011;2772;42.700;23.304;2023-07-31T18:43:34;7.60;;;4.90;;
5499;SDS011;2772;42.700;23.304;2023-07-31T18:46:01;8.10;;;5.77;;
5499;SDS011;2772;42.700;23.304;2023-07-31T18:48:27;6.33;;;5.70;;
5499;SDS011;2772;42.700;23.304;2023-07-31T18:50:57;9.10;;;7.63;;
5499;SDS011;2772;42.700;23.304;2023-07-31T18:53:23;5.20;;;4.70;;
5499;SDS011;2772;42.700;23.304;2023-07-31T18:55:50;8.10;;;7.30;;
5499;SDS011;2772;42.700;23.304;2023-07-31T18:58:17;6.13;;;3.60;;
5499;SDS011;2772;42.700;23.304;2023-07-31T19:00:44;4.50;;;4.10;;
5499;SDS011;2772;42.700;23.304;2023-07-31T19:03:11;39.93;;;29.03;;
5499;SDS011;2772;42.700;23.304;2023-07-31T19:05:38;11.13;;;7.13;;
5499;SDS011;2772;42.700;23.304;2023-07-31T19:08:07;25.40;;;19.37;;
5499;SDS011;2772;42.700;23.304;2023-07-31T19:10:34;5.33;;;4.83;;
5499;SDS011;2772;42.700;23.304;2023-07-31T19:13:01;10.20;;;5.87;;
5499;SDS011;2772;42.700;23.304;2023-07-31T19:15:30;8.70;;;5.47;;
5499;SDS011;2772;42.700;23.304;2023-07-31T19:17:57;16.73;;;8.80;;
5499;SDS011;2772;42.700;23.304;2023-07-31T19:20:24;4.83;;;4.13;;
5499;SDS011;2772;42.700;23.304;2023-07-31T19:22:50;11.30;;;4.63;;
5499;SDS011;2772;42.700;23.304;2023-07-31T19:25:18;16.30;;;13.10;;
5499;SDS011;2772;42.700;23.304;2023-07-31T19:27:45;21.60;;;16.53;;
5499;SDS011;2772;42.700;23.304;2023-07-31T19:30:12;5.37;;;4.87;;
5499;SDS011;2772;42.700;23.304;2023-07-31T19:32:39;19.90;;;15.23;;
5499;SDS011;2772;42.700;23.304;2023-07-31T19:35:05;11.17;;;7.77;;
5499;SDS011;2772;42.700;23.304;2023-07-31T19:37:32;16.60;;;14.10;;
5499;SDS011;2772;42.700;23.304;2023-07-31T19:39:59;11.60;;;8.47;;
5499;SDS011;2772;42.700;23.304;2023-07-31T19:42:27;18.00;;;13.00;;
5499;SDS011;2772;42.700;23.304;2023-07-31T19:44:57;7.90;;;6.93;;
5499;SDS011;2772;42.700;23.304;2023-07-31T19:47:24;17.90;;;13.77;;
5499;SDS011;2772;42.700;23.304;2023-07-31T19:49:51;19.47;;;15.00;;
5499;SDS011;2772;42.700;23.304;2023-07-31T19:52:17;9.60;;;6.47;;
5499;SDS011;2772;42.700;23.304;2023-07-31T19:54:44;11.87;;;7.03;;
5499;SDS011;2772;42.700;23.304;2023-07-31T19:57:11;13.73;;;9.83;;
5499;SDS011;2772;42.700;23.304;2023-07-31T19:59:39;17.80;;;7.23;;
5499;SDS011;2772;42.700;23.304;2023-07-31T20:02:06;10.80;;;6.50;;
5499;SDS011;2772;42.700;23.304;2023-07-31T20:04:33;7.33;;;6.40;;
5499;SDS011;2772;42.700;23.304;2023-07-31T20:07:00;17.13;;;14.03;;
5499;SDS011;2772;42.700;23.304;2023-07-31T20:09:27;12.43;;;5.67;;
5499;SDS011;2772;42.700;23.304;2023-07-31T20:11:54;6.20;;;5.60;;
5499;SDS011;2772;42.700;23.304;2023-07-31T20:14:21;6.63;;;4.90;;
5499;SDS011;2772;42.700;23.304;2023-07-31T20:16:49;8.97;;;8.00;;
5499;SDS011;2772;42.700;23.304;2023-07-31T20:19:16;6.13;;;5.47;;
5499;SDS011;2772;42.700;23.304;2023-07-31T20:21:42;5.13;;;4.63;;
5499;SDS011;2772;42.700;23.304;2023-07-31T20:24:09;5.43;;;5.00;;
5499;SDS011;2772;42.700;23.304;2023-07-31T20:26:36;7.93;;;4.30;;
5499;SDS011;2772;42.700;23.304;2023-07-31T20:29:03;16.37;;;5.37;;
5499;SDS011;2772;42.700;23.304;2023-07-31T20:31:30;3.80;;;3.60;;
5499;SDS011;2772;42.700;23.304;2023-07-31T20:33:58;5.77;;;4.60;;
5499;SDS011;2772;42.700;23.304;2023-07-31T20:36:24;4.87;;;3.87;;
5499;SDS011;2772;42.700;23.304;2023-07-31T20:38:51;5.33;;;4.00;;
5499;SDS011;2772;42.700;23.304;2023-07-31T20:41:18;12.27;;;8.80;;
5499;SDS011;2772;42.700;23.304;2023-07-31T20:43:45;5.23;;;4.80;;
5499;SDS011;2772;42.700;23.304;2023-07-31T20:46:11;4.30;;;3.90;;
5499;SDS011;2772;42.700;23.304;2023-07-31T20:48:38;4.47;;;4.00;;
5499;SDS011;2772;42.700;23.304;2023-07-31T20:51:06;5.30;;;4.80;;
5499;SDS011;2772;42.700;23.304;2023-07-31T20:53:33;5.87;;;4.50;;
5499;SDS011;2772;42.700;23.304;2023-07-31T20:56:00;8.90;;;4.13;;
5499;SDS011;2772;42.700;23.304;2023-07-31T20:58:27;7.20;;;4.53;;
5499;SDS011;2772;42.700;23.304;2023-07-31T21:00:54;5.83;;;4.50;;
5499;SDS011;2772;42.700;23.304;2023-07-31T21:03:20;7.70;;;5.03;;
5499;SDS011;2772;42.700;23.304;2023-07-31T21:05:50;23.17;;;13.63;;
5499;SDS011;2772;42.700;23.304;2023-07-31T21:08:19;12.07;;;8.20;;
5499;SDS011;2772;42.700;23.304;2023-07-31T21:10:48;63.63;;;32.87;;
5499;SDS011;2772;42.700;23.304;2023-07-31T21:13:15;46.17;;;20.40;;
5499;SDS011;2772;42.700;23.304;2023-07-31T21:15:42;41.47;;;20.67;;
5499;SDS011;2772;42.700;23.304;2023-07-31T21:18:09;83.60;;;39.67;;
5499;SDS011;2772;42.700;23.304;2023-07-31T21:20:35;65.63;;;30.13;;
5499;SDS011;2772;42.700;23.304;2023-07-31T21:23:03;12.17;;;7.87;;
5499;SDS011;2772;42.700;23.304;2023-07-31T21:25:34;37.90;;;18.17;;
5499;SDS011;2772;42.700;23.304;2023-07-31T21:28:01;27.00;;;14.27;;
5499;SDS011;2772;42.700;23.304;2023-07-31T21:30:29;7.20;;;5.20;;
5499;SDS011;2772;42.700;23.304;2023-07-31T21:32:57;129.40;;;60.27;;
5499;SDS011;2772;42.700;23.304;2023-07-31T21:35:24;51.13;;;25.10;;
5499;SDS011;2772;42.700;23.304;2023-07-31T21:37:51;42.60;;;24.83;;
5499;SDS011;2772;42.700;23.304;2023-07-31T21:40:18;18.43;;;11.40;;
5499;SDS011;2772;42.700;23.304;2023-07-31T21:42:48;5.37;;;4.70;;
5499;SDS011;2772;42.700;23.304;2023-07-31T21:45:14;14.20;;;9.67;;
5499;SDS011;2772;42.700;23.304;2023-07-31T21:47:41;25.67;;;13.43;;
5499;SDS011;2772;42.700;23.304;2023-07-31T21:50:09;20.23;;;11.60;;
5499;SDS011;2772;42.700;23.304;2023-07-31T21:52:36;9.77;;;6.63;;
5499;SDS011;2772;42.700;23.304;2023-07-31T21:55:04;43.97;;;22.97;;
5499;SDS011;2772;42.700;23.304;2023-07-31T21:57:32;25.67;;;13.63;;
5499;SDS011;2772;42.700;23.304;2023-07-31T22:00:00;13.20;;;9.03;;
5499;SDS011;2772;42.700;23.304;2023-07-31T22:02:27;5.70;;;4.23;;
5499;SDS011;2772;42.700;23.304;2023-07-31T22:04:53;6.70;;;5.10;;
5499;SDS011;2772;42.700;23.304;2023-07-31T22:07:20;5.43;;;4.67;;
5499;SDS011;2772;42.700;23.304;2023-07-31T22:09:47;16.70;;;9.90;;
5499;SDS011;2772;42.700;23.304;2023-07-31T22:12:14;20.07;;;11.90;;
5499;SDS011;2772;42.700;23.304;2023-07-31T22:14:40;17.67;;;10.30;;
5499;SDS011;2772;42.700;23.304;2023-07-31T22:17:09;6.90;;;5.30;;
5499;SDS011;2772;42.700;23.304;2023-07-31T22:19:36;3.30;;;3.00;;
5499;SDS011;2772;42.700;23.304;2023-07-31T22:22:03;3.60;;;3.13;;
5499;SDS011;2772;42.700;23.304;2023-07-31T22:24:30;3.87;;;3.43;;
5499;SDS011;2772;42.700;23.304;2023-07-31T22:26:57;11.33;;;5.70;;
5499;SDS011;2772;42.700;23.304;2023-07-31T22:29:23;6.53;;;4.50;;
5499;SDS011;2772;42.700;23.304;2023-07-31T22:31:52;5.13;;;4.20;;
5499;SDS011;2772;42.700;23.304;2023-07-31T22:34:20;7.07;;;5.77;;
5499;SDS011;2772;42.700;23.304;2023-07-31T22:36:47;4.10;;;3.67;;
5499;SDS011;2772;42.700;23.304;2023-07-31T22:39:14;8.90;;;5.13;;